createdAt,value
2023-03-19T00:00:43.697Z,80.67
2023-03-19T00:03:31.151Z,100.43
2023-03-19T00:05:58.132Z,104.23
2023-03-19T00:08:24.953Z,96.77
2023-03-19T00:10:52.118Z,86.37
2023-03-19T00:13:20.098Z,60.63
2023-03-19T00:15:49.749Z,52.23
2023-03-19T00:18:16.479Z,56.17
2023-03-19T00:20:43.776Z,57.67
2023-03-19T00:23:10.480Z,57.27
2023-03-19T00:25:37.502Z,39.93
2023-03-19T00:28:04.254Z,44.73
2023-03-19T00:30:31.309Z,42.80
2023-03-19T00:32:58.147Z,42.43
2023-03-19T00:35:25.156Z,42.67
2023-03-19T00:37:52.682Z,42.00
2023-03-19T00:40:19.735Z,35.17
2023-03-19T00:42:46.736Z,38.40
2023-03-19T00:45:14.043Z,35.47
2023-03-19T00:47:40.850Z,36.13
2023-03-19T00:50:08.343Z,32.40
2023-03-19T00:52:35.249Z,33.53
2023-03-19T00:55:02.287Z,33.37
2023-03-19T00:57:29.226Z,32.60
2023-03-19T00:59:56.248Z,34.60
2023-03-19T01:02:23.074Z,27.53
2023-03-19T01:04:50.572Z,27.23
2023-03-19T01:07:17.409Z,28.77
2023-03-19T01:09:44.413Z,28.80
2023-03-19T01:12:11.123Z,31.43
2023-03-19T01:14:38.188Z,28.33
2023-03-19T01:17:05.287Z,30.70
2023-03-19T01:19:32.532Z,31.87
2023-03-19T01:21:59.474Z,29.47
2023-03-19T01:24:30.176Z,30.47
2023-03-19T01:26:56.985Z,31.27
2023-03-19T01:29:32.123Z,28.30
2023-03-19T01:32:07.459Z,28.43
2023-03-19T01:34:53.568Z,30.47
2023-03-19T01:37:21.149Z,30.00
2023-03-19T01:39:48.618Z,28.77
2023-03-19T01:42:15.705Z,30.43
2023-03-19T01:45:03.773Z,27.77
2023-03-19T01:47:44.466Z,27.77
2023-03-19T01:50:38.999Z,24.50
2023-03-19T01:53:29.670Z,20.93
2023-03-19T01:56:39.657Z,19.90
2023-03-19T01:59:26.724Z,22.37
2023-03-19T02:02:33.261Z,22.87
2023-03-19T02:05:13.158Z,23.37
2023-03-19T02:07:44.825Z,27.27
2023-03-19T02:10:14.859Z,25.23
2023-03-19T02:12:42.427Z,22.80
2023-03-19T02:15:09.574Z,20.13
2023-03-19T02:17:37.148Z,21.83
2023-03-19T02:20:13.031Z,20.37
2023-03-19T02:22:45.384Z,22.43
2023-03-19T02:25:20.880Z,22.37
2023-03-19T02:27:48.101Z,20.57
2023-03-19T02:30:29.071Z,21.63
2023-03-19T02:32:58.035Z,23.83
2023-03-19T02:35:26.913Z,24.97
2023-03-19T02:37:54.029Z,24.33
2023-03-19T02:40:29.258Z,21.63
2023-03-19T02:42:56.666Z,20.17
2023-03-19T02:45:28.808Z,19.20
2023-03-19T02:47:56.486Z,20.00
2023-03-19T02:50:23.411Z,22.27
2023-03-19T02:52:50.780Z,19.97
2023-03-19T02:55:18.482Z,18.93
2023-03-19T02:57:46.065Z,19.00
2023-03-19T03:00:13.840Z,18.27
2023-03-19T03:02:41.103Z,18.20
2023-03-19T03:05:09.232Z,17.53
2023-03-19T03:07:37.697Z,19.43
2023-03-19T03:10:04.822Z,17.83
2023-03-19T03:12:32.494Z,19.77
2023-03-19T03:14:59.498Z,18.23
2023-03-19T03:17:27.022Z,22.33
2023-03-19T03:19:53.759Z,20.93
2023-03-19T03:22:21.470Z,22.10
2023-03-19T03:24:48.164Z,22.17
2023-03-19T03:27:15.152Z,20.07
2023-03-19T03:29:42.037Z,19.40
2023-03-19T03:32:09.176Z,20.70
2023-03-19T03:34:36.397Z,19.87
2023-03-19T03:37:03.395Z,18.07
2023-03-19T03:39:30.256Z,19.90
2023-03-19T03:41:57.318Z,18.73
2023-03-19T03:44:24.346Z,18.63
2023-03-19T03:46:51.888Z,21.87
2023-03-19T03:49:18.843Z,31.33
2023-03-19T03:51:45.831Z,24.07
2023-03-19T03:54:12.637Z,26.67
2023-03-19T03:56:39.673Z,25.40
2023-03-19T03:59:07.610Z,23.53
2023-03-19T04:01:35.526Z,22.43
2023-03-19T04:04:02.724Z,20.23
2023-03-19T04:06:30.536Z,24.40
2023-03-19T04:09:20.375Z,21.33
2023-03-19T04:11:48.730Z,24.20
2023-03-19T04:14:17.243Z,22.03
2023-03-19T04:16:44.632Z,20.17
2023-03-19T04:19:11.917Z,19.27
2023-03-19T04:21:39.621Z,20.10
2023-03-19T04:24:06.524Z,19.40
2023-03-19T04:26:33.752Z,20.73
2023-03-19T04:29:00.438Z,20.23
2023-03-19T04:31:28.472Z,20.60
2023-03-19T04:33:55.415Z,20.33
2023-03-19T04:36:22.558Z,21.00
2023-03-19T04:38:49.410Z,20.37
2023-03-19T04:41:16.498Z,21.80
2023-03-19T04:43:56.368Z,20.83
2023-03-19T04:46:24.042Z,22.43
2023-03-19T04:48:51.117Z,22.10
2023-03-19T04:51:18.441Z,21.80
2023-03-19T04:53:45.650Z,20.43
2023-03-19T04:56:16.491Z,21.60
2023-03-19T04:58:46.119Z,19.37
2023-03-19T05:01:13.363Z,20.43
2023-03-19T05:04:09.728Z,21.20
2023-03-19T05:06:38.427Z,21.17
2023-03-19T05:09:07.616Z,21.53
2023-03-19T05:11:35.154Z,21.17
2023-03-19T05:14:04.921Z,22.23
2023-03-19T05:16:44.659Z,22.40
2023-03-19T05:19:11.501Z,21.67
2023-03-19T05:21:39.089Z,19.90
2023-03-19T05:24:05.957Z,21.73
2023-03-19T05:26:37.603Z,21.07
2023-03-19T05:29:23.292Z,22.43
2023-03-19T05:32:16.670Z,21.00
2023-03-19T05:34:44.684Z,22.23
2023-03-19T05:37:12.135Z,20.90
2023-03-19T05:39:40.353Z,21.63
2023-03-19T05:42:09.527Z,26.83
2023-03-19T05:44:36.843Z,25.77
2023-03-19T05:47:17.278Z,27.63
2023-03-19T05:49:49.914Z,30.17
2023-03-19T05:52:17.073Z,29.80
2023-03-19T05:54:44.889Z,26.87
2023-03-19T05:57:23.798Z,27.80
2023-03-19T05:59:56.641Z,29.57
2023-03-19T06:02:34.026Z,28.80
2023-03-19T06:05:15.757Z,27.73
2023-03-19T06:07:43.340Z,24.70
2023-03-19T06:10:17.549Z,25.33
2023-03-19T06:12:46.706Z,24.63
2023-03-19T06:15:33.860Z,23.43
2023-03-19T06:18:36.637Z,25.23
2023-03-19T06:21:08.705Z,24.93
2023-03-19T06:23:36.035Z,25.07
2023-03-19T06:26:05.976Z,26.17
2023-03-19T06:28:40.441Z,24.93
2023-03-19T06:31:08.201Z,25.47
2023-03-19T06:33:54.692Z,24.67
2023-03-19T06:36:23.810Z,25.73
2023-03-19T06:38:51.223Z,24.20
2023-03-19T06:41:18.048Z,23.60
2023-03-19T06:43:47.515Z,24.37
2023-03-19T06:46:14.336Z,22.63
2023-03-19T06:48:41.443Z,22.53
2023-03-19T06:51:08.303Z,21.90
2023-03-19T06:53:35.501Z,22.33
2023-03-19T06:56:02.236Z,22.90
2023-03-19T06:58:29.210Z,23.60
2023-03-19T07:00:56.918Z,24.77
2023-03-19T07:03:24.269Z,24.67
2023-03-19T07:05:51.814Z,25.13
2023-03-19T07:08:20.093Z,25.13
2023-03-19T07:10:46.794Z,23.97
2023-03-19T07:13:14.111Z,24.40
2023-03-19T07:15:40.970Z,25.00
2023-03-19T07:18:08.100Z,25.97
2023-03-19T07:20:35.009Z,25.47
2023-03-19T07:23:02.230Z,26.73
2023-03-19T07:25:29.252Z,27.92
2023-03-19T07:27:56.292Z,29.75
2023-03-19T07:30:23.419Z,32.55
2023-03-19T07:32:50.505Z,28.77
2023-03-19T07:35:17.372Z,29.92
2023-03-19T07:37:44.382Z,26.80
2023-03-19T07:40:11.573Z,25.77
2023-03-19T07:42:38.816Z,25.98
2023-03-19T07:45:06.702Z,26.25
2023-03-19T07:47:33.768Z,25.45
2023-03-19T07:50:00.741Z,24.60
2023-03-19T07:52:27.851Z,25.95
2023-03-19T07:54:55.150Z,23.73
2023-03-19T07:57:22.627Z,25.17
2023-03-19T07:59:49.536Z,24.02
2023-03-19T08:02:18.380Z,24.52
2023-03-19T08:04:46.646Z,24.85
2023-03-19T08:07:14.078Z,25.83
2023-03-19T08:09:40.872Z,25.45
2023-03-19T08:12:08.735Z,26.17
2023-03-19T08:14:36.111Z,26.27
2023-03-19T08:17:03.218Z,27.13
2023-03-19T08:19:29.996Z,26.55
2023-03-19T08:21:57.355Z,27.27
2023-03-19T08:24:24.098Z,27.23
2023-03-19T08:26:51.590Z,24.73
2023-03-19T08:29:19.134Z,26.33
2023-03-19T08:31:46.470Z,26.90
2023-03-19T08:34:13.705Z,27.38
2023-03-19T08:36:40.744Z,28.08
2023-03-19T08:39:07.544Z,27.08
2023-03-19T08:41:34.831Z,25.30
2023-03-19T08:44:01.638Z,25.80
2023-03-19T08:46:29.329Z,26.63
2023-03-19T08:48:56.359Z,24.92
2023-03-19T08:51:26.047Z,25.92
2023-03-19T08:53:53.063Z,25.90
2023-03-19T08:56:20.407Z,24.65
2023-03-19T08:58:47.273Z,25.13
2023-03-19T09:01:15.231Z,24.88
2023-03-19T09:03:43.819Z,25.38
2023-03-19T09:06:12.773Z,24.55
2023-03-19T09:08:39.509Z,25.80
2023-03-19T09:11:06.716Z,27.33
2023-03-19T09:13:33.925Z,27.42
2023-03-19T09:16:01.566Z,27.45
2023-03-19T09:18:28.773Z,28.77
2023-03-19T09:20:55.882Z,27.13
2023-03-19T09:23:22.851Z,27.23
2023-03-19T09:25:50.269Z,26.80
2023-03-19T09:28:17.178Z,25.83
2023-03-19T09:30:48.495Z,28.88
2023-03-19T09:33:16.760Z,28.30
2023-03-19T09:35:48.560Z,25.17
2023-03-19T09:38:15.306Z,25.08
2023-03-19T09:40:46.381Z,24.02
2023-03-19T09:43:41.069Z,23.65
2023-03-19T09:46:22.060Z,23.05
2023-03-19T09:48:56.087Z,24.05
2023-03-19T09:51:35.608Z,24.13
2023-03-19T09:54:26.421Z,20.48
2023-03-19T09:56:54.466Z,19.98
2023-03-19T09:59:27.041Z,20.73
2023-03-19T10:02:03.825Z,20.15
2023-03-19T10:04:43.852Z,18.90
2023-03-19T10:07:29.921Z,18.40
2023-03-19T10:10:11.941Z,19.13
2023-03-19T10:13:07.772Z,19.45
2023-03-19T10:15:37.915Z,18.35
2023-03-19T10:18:19.803Z,18.77
2023-03-19T10:21:03.271Z,17.02
2023-03-19T10:23:39.591Z,19.30
2023-03-19T10:26:12.141Z,18.35
2023-03-19T10:28:42.245Z,17.88
2023-03-19T10:31:25.893Z,18.70
2023-03-19T10:34:06.278Z,18.73
2023-03-19T10:36:36.023Z,18.95
2023-03-19T10:39:06.934Z,17.65
2023-03-19T10:42:12.084Z,16.30
2023-03-19T10:44:48.368Z,17.98
2023-03-19T10:47:17.048Z,18.05
2023-03-19T10:49:44.031Z,19.45
2023-03-19T10:52:21.718Z,20.00
2023-03-19T10:54:55.342Z,19.58
2023-03-19T10:57:26.489Z,18.60
2023-03-19T10:59:54.037Z,19.58
2023-03-19T11:02:27.347Z,18.67
2023-03-19T11:05:08.015Z,18.08
2023-03-19T11:07:37.173Z,18.58
2023-03-19T11:10:05.618Z,18.77
2023-03-19T11:12:35.263Z,18.48
2023-03-19T11:15:07.474Z,18.48
2023-03-19T11:17:39.769Z,18.55
2023-03-19T11:20:15.817Z,18.45
2023-03-19T11:22:42.819Z,18.02
2023-03-19T11:25:20.329Z,18.40
2023-03-19T11:28:07.481Z,19.05
2023-03-19T11:30:58.670Z,18.25
2023-03-19T11:33:57.245Z,18.15
2023-03-19T11:36:57.013Z,18.23
2023-03-19T11:39:32.526Z,17.75
2023-03-19T11:42:35.182Z,18.73
2023-03-19T11:45:31.785Z,17.75
2023-03-19T11:48:24.853Z,15.02
2023-03-19T11:51:11.220Z,16.63
2023-03-19T11:53:47.873Z,16.55
2023-03-19T11:56:33.660Z,16.95
2023-03-19T11:59:33.103Z,17.88
2023-03-19T12:02:25.706Z,17.10
2023-03-19T12:05:11.489Z,17.13
2023-03-19T12:08:02.027Z,17.85
2023-03-19T12:10:42.034Z,18.52
2023-03-19T12:13:20.698Z,19.52
2023-03-19T12:16:00.307Z,19.63
2023-03-19T12:18:54.135Z,19.65
2023-03-19T12:21:39.319Z,21.08
2023-03-19T12:24:12.153Z,21.38
2023-03-19T12:26:42.768Z,22.20
2023-03-19T12:29:20.385Z,23.13
2023-03-19T12:32:23.014Z,21.45
2023-03-19T12:34:57.756Z,19.60
2023-03-19T12:37:38.496Z,17.95
2023-03-19T12:40:29.919Z,19.63
2023-03-19T12:42:59.248Z,20.48
2023-03-19T12:45:52.617Z,19.05
2023-03-19T12:48:35.786Z,19.88
2023-03-19T12:51:07.221Z,21.08
2023-03-19T12:54:06.694Z,21.98
2023-03-19T12:56:45.266Z,19.45
2023-03-19T12:59:18.539Z,20.83
2023-03-19T13:01:51.490Z,20.95
2023-03-19T13:04:26.539Z,21.13
2023-03-19T13:07:17.993Z,20.88
2023-03-19T13:09:49.283Z,21.08
2023-03-19T13:12:20.065Z,19.38
2023-03-19T13:15:06.384Z,20.40
2023-03-19T13:18:21.705Z,19.27
2023-03-19T13:21:27.214Z,19.92
2023-03-19T13:24:06.173Z,19.83
2023-03-19T13:26:34.791Z,20.90
2023-03-19T13:29:09.065Z,20.33
2023-03-19T13:31:37.799Z,20.55
2023-03-19T13:34:16.966Z,21.67
2023-03-19T13:36:53.475Z,22.58
2023-03-19T13:39:28.093Z,21.25
2023-03-19T13:42:08.553Z,21.50
2023-03-19T13:44:41.374Z,19.92
2023-03-19T13:47:26.764Z,20.80
2023-03-19T13:50:20.519Z,20.90
2023-03-19T13:53:13.534Z,20.73
2023-03-19T13:55:52.298Z,20.10
2023-03-19T13:58:43.600Z,19.70
2023-03-19T14:01:12.645Z,20.30
2023-03-19T14:03:54.244Z,19.85
2023-03-19T14:06:47.273Z,19.95
2023-03-19T14:09:43.448Z,20.20
2023-03-19T14:12:16.297Z,20.88
2023-03-19T14:14:55.380Z,21.52
2023-03-19T14:17:43.621Z,21.33
2023-03-19T14:20:12.604Z,19.88
2023-03-19T14:23:17.834Z,21.33
2023-03-19T14:25:53.639Z,19.83
2023-03-19T14:28:28.060Z,18.20
2023-03-19T14:30:56.875Z,17.83
2023-03-19T14:33:44.418Z,19.35
2023-03-19T14:36:18.638Z,19.33
2023-03-19T14:38:51.796Z,21.27
2023-03-19T14:41:22.042Z,20.08
2023-03-19T14:44:04.331Z,20.05
2023-03-19T14:46:46.483Z,18.38
2023-03-19T14:49:50.509Z,19.13
2023-03-19T14:52:26.925Z,18.58
2023-03-19T14:54:59.065Z,19.70
2023-03-19T14:57:27.433Z,18.60
2023-03-19T14:59:55.472Z,18.92
2023-03-19T15:02:49.138Z,20.42
2023-03-19T15:05:24.749Z,19.45
2023-03-19T15:07:56.342Z,18.40
2023-03-19T15:10:30.409Z,18.77
2023-03-19T15:13:19.137Z,19.95
2023-03-19T15:16:04.997Z,18.95
2023-03-19T15:18:31.981Z,19.48
2023-03-19T15:20:59.230Z,18.77
2023-03-19T15:23:28.607Z,17.35
2023-03-19T15:26:00.307Z,18.25
2023-03-19T15:28:29.862Z,18.77
2023-03-19T15:31:06.021Z,18.45
2023-03-19T15:33:44.807Z,19.80
2023-03-19T15:36:26.241Z,19.98
2023-03-19T15:39:02.692Z,19.08
2023-03-19T15:41:32.469Z,18.95
2023-03-19T15:44:01.580Z,17.58
2023-03-19T15:46:34.236Z,17.45
2023-03-19T15:49:08.809Z,18.20
2023-03-19T15:51:36.163Z,17.83
2023-03-19T15:54:04.598Z,17.70
2023-03-19T15:56:32.318Z,17.95
2023-03-19T15:59:00.281Z,17.83
2023-03-19T16:01:28.247Z,17.73
2023-03-19T16:04:01.136Z,17.48
2023-03-19T16:06:29.589Z,17.90
2023-03-19T16:09:13.342Z,17.83
2023-03-19T16:11:45.594Z,17.08
2023-03-19T16:14:19.055Z,17.08
2023-03-19T16:16:47.090Z,17.23
2023-03-19T16:19:28.444Z,17.25
2023-03-19T16:21:55.375Z,18.70
2023-03-19T16:24:30.849Z,17.90
2023-03-19T16:26:58.485Z,17.83
2023-03-19T16:29:28.661Z,16.13
2023-03-19T16:32:18.895Z,15.98
2023-03-19T16:34:51.841Z,15.73
2023-03-19T16:37:46.684Z,18.10
2023-03-19T16:40:13.813Z,16.35
2023-03-19T16:42:41.220Z,15.35
2023-03-19T16:45:14.352Z,16.27
2023-03-19T16:47:42.226Z,15.10
2023-03-19T16:50:10.540Z,16.20
2023-03-19T16:52:39.402Z,17.15
2023-03-19T16:55:18.752Z,15.57
2023-03-19T16:57:54.296Z,15.52
2023-03-19T17:00:22.232Z,15.13
2023-03-19T17:02:49.257Z,14.65
2023-03-19T17:05:17.014Z,15.75
2023-03-19T17:07:43.864Z,15.07
2023-03-19T17:10:15.808Z,15.38
2023-03-19T17:12:45.107Z,15.50
2023-03-19T17:15:22.665Z,15.27
2023-03-19T17:17:50.372Z,16.60
2023-03-19T17:20:24.734Z,15.60
2023-03-19T17:22:51.584Z,14.90
2023-03-19T17:25:19.202Z,14.43
2023-03-19T17:27:46.126Z,15.10
2023-03-19T17:30:13.767Z,14.48
2023-03-19T17:32:44.999Z,13.93
2023-03-19T17:35:22.500Z,14.77
2023-03-19T17:37:49.979Z,15.10
2023-03-19T17:40:28.015Z,13.57
2023-03-19T17:42:56.224Z,14.52
2023-03-19T17:45:29.749Z,15.73
2023-03-19T17:47:58.154Z,15.80
2023-03-19T17:50:31.377Z,15.18
2023-03-19T17:52:58.926Z,14.90
2023-03-19T17:55:29.294Z,16.23
2023-03-19T17:57:56.834Z,15.03
2023-03-19T18:00:24.643Z,15.00
2023-03-19T18:02:54.084Z,15.68
2023-03-19T18:05:24.581Z,14.53
2023-03-19T18:07:54.512Z,15.23
2023-03-19T18:10:26.633Z,15.70
2023-03-19T18:12:54.686Z,18.07
2023-03-19T18:15:23.833Z,15.70
2023-03-19T18:17:53.981Z,18.25
2023-03-19T18:20:23.968Z,19.93
2023-03-19T18:22:51.069Z,18.40
2023-03-19T18:25:26.300Z,20.23
2023-03-19T18:27:53.851Z,20.57
2023-03-19T18:30:23.369Z,19.70
2023-03-19T18:32:54.961Z,40.17
2023-03-19T18:35:27.055Z,40.37
2023-03-19T18:37:54.306Z,42.63
2023-03-19T18:40:24.568Z,46.27
2023-03-19T18:42:51.573Z,31.83
2023-03-19T18:45:19.727Z,41.30
2023-03-19T18:47:48.338Z,41.97
2023-03-19T18:50:26.073Z,41.40
2023-03-19T18:52:53.646Z,33.20
2023-03-19T18:55:26.174Z,42.37
2023-03-19T18:57:59.392Z,56.07
2023-03-19T19:00:29.983Z,47.30
2023-03-19T19:02:57.857Z,36.13
2023-03-19T19:05:30.440Z,54.00
2023-03-19T19:08:00.848Z,46.57
2023-03-19T19:10:34.564Z,46.03
2023-03-19T19:13:02.367Z,46.40
2023-03-19T19:15:33.236Z,49.17
2023-03-19T19:18:00.853Z,57.97
2023-03-19T19:20:29.747Z,68.83
2023-03-19T19:22:56.923Z,73.80
2023-03-19T19:25:26.660Z,80.97
2023-03-19T19:27:58.223Z,77.23
2023-03-19T19:30:25.416Z,66.67
2023-03-19T19:32:52.192Z,59.70
2023-03-19T19:35:23.048Z,43.13
2023-03-19T19:37:50.376Z,35.93
2023-03-19T19:40:23.318Z,32.90
2023-03-19T19:42:52.323Z,31.40
2023-03-19T19:45:26.474Z,35.63
2023-03-19T19:47:53.516Z,30.37
2023-03-19T19:50:23.303Z,27.73
2023-03-19T19:52:50.111Z,25.67
2023-03-19T19:55:17.236Z,24.90
2023-03-19T19:57:44.973Z,31.03
2023-03-19T20:00:23.691Z,25.83
2023-03-19T20:02:50.873Z,28.13
2023-03-19T20:05:22.436Z,32.30
2023-03-19T20:07:51.336Z,30.33
2023-03-19T20:10:20.181Z,35.27
2023-03-19T20:12:51.300Z,31.60
2023-03-19T20:15:19.805Z,23.23
2023-03-19T20:17:47.428Z,23.87
2023-03-19T20:20:16.973Z,25.50
2023-03-19T20:22:43.926Z,23.37
2023-03-19T20:25:11.785Z,21.83
2023-03-19T20:27:39.028Z,22.43
2023-03-19T20:30:11.602Z,21.73
2023-03-19T20:32:38.537Z,19.97
2023-03-19T20:35:15.893Z,19.40
2023-03-19T20:37:42.647Z,19.63
2023-03-19T20:40:11.208Z,19.27
2023-03-19T20:42:38.652Z,21.00
2023-03-19T20:45:09.391Z,21.27
2023-03-19T20:47:36.130Z,20.03
2023-03-19T20:50:03.213Z,21.57
2023-03-19T20:52:29.974Z,20.13
2023-03-19T20:54:58.629Z,22.20
2023-03-19T20:57:29.143Z,22.40
2023-03-19T20:59:56.454Z,20.83
2023-03-19T21:02:27.613Z,20.10
2023-03-19T21:04:54.880Z,20.77
2023-03-19T21:07:34.509Z,21.73
2023-03-19T21:10:20.890Z,20.13
2023-03-19T21:12:47.617Z,20.03
2023-03-19T21:15:15.347Z,22.10
2023-03-19T21:17:42.546Z,23.43
2023-03-19T21:20:18.182Z,23.33
2023-03-19T21:22:48.803Z,22.77
2023-03-19T21:25:20.777Z,22.70
2023-03-19T21:27:52.116Z,20.77
2023-03-19T21:30:20.914Z,22.07
2023-03-19T21:32:48.578Z,21.40
2023-03-19T21:35:18.525Z,22.70
2023-03-19T21:37:45.949Z,22.53
2023-03-19T21:40:27.617Z,24.60
2023-03-19T21:43:02.216Z,25.47
2023-03-19T21:45:33.606Z,22.17
2023-03-19T21:48:24.175Z,22.43
2023-03-19T21:50:52.200Z,21.77
2023-03-19T21:53:19.583Z,21.37
2023-03-19T21:55:47.003Z,21.60
2023-03-19T21:58:16.496Z,21.03
2023-03-19T22:00:44.094Z,20.30
2023-03-19T22:03:17.848Z,22.77
2023-03-19T22:05:45.980Z,28.10
2023-03-19T22:08:14.838Z,22.00
2023-03-19T22:10:43.083Z,29.90
2023-03-19T22:13:26.010Z,22.67
2023-03-19T22:15:54.747Z,21.73
2023-03-19T22:18:22.435Z,21.93
2023-03-19T22:20:50.615Z,29.90
2023-03-19T22:23:18.381Z,27.67
2023-03-19T22:25:48.870Z,29.13
2023-03-19T22:28:21.240Z,26.67
2023-03-19T22:30:48.803Z,25.23
2023-03-19T22:33:18.331Z,23.77
2023-03-19T22:35:46.314Z,24.33
2023-03-19T22:38:13.113Z,23.30
2023-03-19T22:40:40.247Z,22.77
2023-03-19T22:43:21.590Z,24.90
2023-03-19T22:45:54.571Z,23.27
2023-03-19T22:48:22.021Z,22.87
2023-03-19T22:50:49.301Z,23.33
2023-03-19T22:53:22.166Z,23.43
2023-03-19T22:55:49.512Z,28.13
2023-03-19T22:58:16.692Z,27.03
2023-03-19T23:00:44.448Z,26.10
2023-03-19T23:03:26.348Z,30.83
2023-03-19T23:05:59.240Z,32.43
2023-03-19T23:08:26.487Z,32.83
2023-03-19T23:10:53.689Z,34.93
2023-03-19T23:13:23.015Z,31.10
2023-03-19T23:15:56.623Z,30.13
2023-03-19T23:18:29.558Z,31.30
2023-03-19T23:20:56.906Z,30.07
2023-03-19T23:23:24.017Z,33.33
2023-03-19T23:25:51.351Z,33.13
2023-03-19T23:28:30.393Z,32.60
2023-03-19T23:30:58.787Z,28.90
2023-03-19T23:33:27.010Z,30.47
2023-03-19T23:35:54.539Z,32.87
2023-03-19T23:38:21.772Z,32.30
2023-03-19T23:40:51.347Z,31.37
2023-03-19T23:43:27.954Z,33.83
2023-03-19T23:45:56.387Z,32.17
2023-03-19T23:48:29.816Z,32.30
2023-03-19T23:50:56.858Z,33.20
2023-03-19T23:53:26.081Z,32.83
2023-03-19T23:56:03.086Z,31.33
2023-03-19T23:58:39.743Z,34.93
